Flight Track Log - Related Links

Times and Time Zones

All times are in EDT time to prevent confusion due to time zone crossing. See the OKA2860 flight status page for this flight to view local times or setup timezone preferences in your user account.

Time Position Orientation Groundspeed Altitude Reporting Facility
EDT Latitude Longitude Course Direction KTS MPH feet Rate Location/Type
Fri 12:53:00 PM 30.0157 119.5949 254° West  Level Estimated
Fri 12:54:00 PM 29.9917 119.5022 253° West  Level Estimated
Fri 12:55:00 PM 29.9677 119.4094 253° West  Level Estimated
Fri 12:56:00 PM 29.9436 119.3168 253° West  Level Estimated
Fri 12:57:00 PM 29.9195 119.2242 253° West  Level Estimated
Fri 12:58:00 PM 29.8952 119.1316 253° West  Level Estimated
Fri 12:59:00 PM 29.8710 119.0391 253° West  Level Estimated
Fri 01:00:00 PM 29.8466 118.9466 253° West  Level Estimated
Fri 01:01:00 PM 29.8222 118.8541 253° West  Level Estimated
Fri 01:02:00 PM 29.7977 118.7618 253° West  Level Estimated
Fri 01:03:00 PM 29.7732 118.6694 253° West  Level Estimated
Fri 01:04:00 PM 29.7486 118.5771 253° West  Level Estimated
Fri 01:05:00 PM 29.7239 118.4849 253° West  Level Estimated
Fri 01:06:00 PM 29.6992 118.3926 253° West  Level Estimated
Fri 01:07:00 PM 29.6744 118.3005 253° West  Level Estimated
Fri 01:08:00 PM 29.6495 118.2084 253° West  Level Estimated
Fri 01:09:00 PM 29.6246 118.1163 253° West  Level Estimated
Fri 01:10:00 PM 29.5996 118.0243 253° West  Level Estimated
Fri 01:11:00 PM 29.5746 117.9323 253° West  Level Estimated
Fri 01:12:00 PM 29.5495 117.8403 253° West  Level Estimated
Fri 01:13:00 PM 29.5243 117.7485 253° West  Level Estimated
Fri 01:14:00 PM 29.4991 117.6566 252° West  Level Estimated
Fri 01:15:00 PM 29.4738 117.5648 252° West  Level Estimated
Fri 01:16:00 PM 29.4484 117.4731 252° West  Level Estimated
Fri 01:17:00 PM 29.4230 117.3814 252° West  Level Estimated
Fri 01:18:00 PM 29.3975 117.2897 252° West  Level Estimated
Fri 01:19:00 PM 29.3719 117.1981 252° West  Level Estimated
Fri 01:20:00 PM 29.3463 117.1065 252° West  Level Estimated
Fri 01:21:00 PM 29.3207 117.0150 252° West  Level Estimated
Fri 01:22:00 PM 29.2949 116.9235 252° West  Level Estimated
Fri 01:23:00 PM 29.2691 116.8321 252° West  Level Estimated
Fri 01:24:00 PM 29.2432 116.7407 252° West  Level Estimated
Fri 01:25:00 PM 29.2173 116.6494 252° West  Level Estimated
Fri 01:26:00 PM 29.1913 116.5581 252° West  Level Estimated
Fri 01:27:00 PM 29.1653 116.4668 252° West  Level Estimated
Fri 01:28:00 PM 29.1392 116.3756 252° West  Level Estimated
Fri 01:29:00 PM 29.1130 116.2845 252° West  Level Estimated
Fri 01:30:00 PM 29.0868 116.1934 252° West  Level Estimated
Fri 01:31:00 PM 29.0605 116.1023 252° West  Level Estimated
Fri 01:32:00 PM 29.0341 116.0113 252° West  Level Estimated
Fri 01:33:00 PM 29.0077 115.9203 252° West  Level Estimated
Fri 01:34:00 PM 28.9812 115.8294 252° West  Level Estimated
Fri 01:35:00 PM 28.9547 115.7385 252° West  Level Estimated
Fri 01:36:00 PM 28.9281 115.6477 252° West  Level Estimated
Fri 01:37:00 PM 28.9014 115.5569 251° West  Level Estimated
Fri 01:38:00 PM 28.8747 115.4662 251° West  Level Estimated
Fri 01:39:00 PM 28.8479 115.3755 251° West  Level Estimated
Fri 01:40:00 PM 28.8211 115.2849 251° West  Level Estimated
Fri 01:41:00 PM 28.7941 115.1943 251° West  Level Estimated
Fri 01:42:00 PM 28.7672 115.1037 251° West  Level Estimated
Fri 01:43:00 PM 28.7402 115.0132 251° West  Level Estimated
Fri 01:44:00 PM 28.7131 114.9228 251° West  Level Estimated
Fri 01:45:00 PM 28.6859 114.8324 251° West  Level Estimated
Fri 01:46:00 PM 28.6587 114.7420 251° West  Level Estimated
Fri 01:47:00 PM 28.6314 114.6517 251° West  Level Estimated
Fri 01:48:00 PM 28.6041 114.5614 251° West  Level Estimated
Fri 01:49:00 PM 28.5767 114.4712 251° West  Level Estimated
Fri 01:50:00 PM 28.5493 114.3810 251° West  Level Estimated
Fri 01:51:00 PM 28.5218 114.2909 251° West  Level Estimated
Fri 01:52:00 PM 28.4942 114.2008 251° West  Level Estimated
Fri 01:53:00 PM 28.4666 114.1108 251° West  Level Estimated
Fri 01:54:00 PM 28.4389 114.0208 251° West  Level Estimated
Fri 01:55:00 PM 28.4112 113.9309 251° West  Level Estimated
Fri 01:56:00 PM 28.3834 113.8410 251° West  Level Estimated
Fri 01:57:00 PM 28.3555 113.7512 251° West  Level Estimated
Fri 01:58:00 PM 28.3276 113.6614 251° West  Level Estimated
Fri 01:59:00 PM 28.2996 113.5716 251° West  Level Estimated
Fri 02:00:00 PM 28.2716 113.4819 250° West  Level Estimated
Fri 02:01:00 PM 28.2435 113.3923 250° West  Level Estimated
Fri 02:02:00 PM 28.2153 113.3027 250° West  Level Estimated
Fri 02:03:00 PM 28.1892 113.2196 250° West  Level Estimated
Fri 02:04:00 PM 28.1892 113.2196 North  Level Estimated
Fri 02:05:00 PM 28.1892 113.2196 North  Level Estimated
Fri 02:06:00 PM 28.1892 113.2196 North  Level Estimated
Fri 02:07:00 PM 28.1892 113.2196 North  Level Estimated
Fri 02:08:00 PM 28.1892 113.2196 North  Level Estimated
Fri 02:09:00 PM 28.1892 113.2196 North  Level Estimated
Fri 02:10:00 PM 28.1892 113.2196 North  Level Estimated
Fri 02:11:00 PM 28.1892 113.2196 North  Level Estimated
Fri 02:12:00 PM 28.1892 113.2196 North  Level Estimated
Fri 02:13:00 PM 28.1892 113.2196 North  Level Estimated
Fri 02:14:00 PM 28.1892 113.2196 North  Level Estimated
Fri 02:15:00 PM 28.1892 113.2196 North  Level Estimated
Fri 02:16:00 PM 28.1892 113.2196 North  Level Estimated
Fri 02:17:00 PM 28.1892 113.2196 North  Level Estimated
Fri 02:18:00 PM 28.1892 113.2196 North  Level Estimated
Fri 02:19:00 PM 28.1892 113.2196 North  Level Estimated

Login

Don't have an account? Register now (free) for customized features, flight alerts, and more!